Time;durP1;ratioP1;P1;durP2;ratioP2;P2;SDS_P1;SDS_P2;PMS_P1;PMS_P2;Temp;Humidity;BMP_temperature;BMP_pressure;BME280_temperature;BME280_humidity;BME280_pressure;Samples;Min_cycle;Max_cycle;Signal;HPM_P1;HPM_P2
2023/11/15 00:00:48;;;;;;;3.50;2.42;;;9.90;99.90;;;;;;5081597;28;20020;-72
2023/11/15 00:03:16;;;;;;;4.88;2.22;;;;;;;;;;5081680;28;20621;-72
2023/11/15 00:05:42;;;;;;;6.30;2.13;;;10.30;99.90;;;;;;5081633;28;20023;-72
2023/11/15 00:08:08;;;;;;;4.95;2.10;;;;;;;;;;5081508;28;20037;-71
2023/11/15 00:10:34;;;;;;;2.08;1.85;;;;;;;;;;5081863;28;20104;-71
2023/11/15 00:13:00;;;;;;;5.80;2.20;;;10.00;99.90;;;;;;5081563;28;20062;-72
2023/11/15 00:15:26;;;;;;;5.82;2.65;;;10.00;99.90;;;;;;5081859;28;20083;-71
2023/11/15 00:17:52;;;;;;;6.38;3.15;;;9.70;99.90;;;;;;5081392;28;20021;-71
2023/11/15 00:20:20;;;;;;;3.50;2.40;;;9.80;99.90;;;;;;5081529;28;20096;-71
2023/11/15 00:22:46;;;;;;;7.20;2.60;;;9.90;99.90;;;;;;5081416;28;20216;-69
2023/11/15 00:25:12;;;;;;;3.50;2.50;;;;;;;;;;5081266;28;20051;-70
2023/11/15 00:27:38;;;;;;;8.43;2.35;;;;;;;;;;5081182;28;20090;-71
2023/11/15 00:30:05;;;;;;;4.22;2.60;;;9.80;99.90;;;;;;5081314;28;20316;-69
2023/11/15 00:32:31;;;;;;;5.15;2.75;;;9.90;99.90;;;;;;5081337;28;20020;-68
2023/11/15 00:34:56;;;;;;;7.65;3.05;;;10.00;99.90;;;;;;5080464;28;20088;-69
2023/11/15 00:37:23;;;;;;;3.45;2.38;;;10.00;99.90;;;;;;5081485;28;20024;-70
2023/11/15 00:39:49;;;;;;;6.15;2.67;;;;;;;;;;5081149;28;20031;-70
2023/11/15 00:42:15;;;;;;;6.13;2.20;;;9.70;99.90;;;;;;5081108;28;20101;-71
2023/11/15 00:44:41;;;;;;;8.07;2.40;;;9.70;99.90;;;;;;5081023;28;20016;-69
2023/11/15 00:47:06;;;;;;;4.80;2.58;;;10.00;99.90;;;;;;5081112;28;20032;-70
2023/11/15 00:49:32;;;;;;;3.85;1.95;;;9.70;99.90;;;;;;5081238;28;20084;-70
2023/11/15 00:51:58;;;;;;;3.35;2.30;;;10.00;99.90;;;;;;5080995;28;20047;-70
2023/11/15 00:54:24;;;;;;;2.55;2.20;;;;;;;;;;5080934;28;20316;-70
2023/11/15 00:56:50;;;;;;;7.55;2.85;;;;;;;;;;5080870;28;20032;-70
2023/11/15 00:59:21;;;;;;;2.97;2.20;;;9.70;99.90;;;;;;5079223;28;20200;-70
2023/11/15 01:01:57;;;;;;;4.82;2.30;;;9.70;99.90;;;;;;5080847;28;20255;-70
2023/11/15 01:04:24;;;;;;;3.35;2.30;;;9.70;99.90;;;;;;5080743;28;20016;-71
2023/11/15 01:06:50;;;;;;;3.38;2.35;;;;;;;;;;5080601;28;20347;-70
2023/11/15 01:09:16;;;;;;;2.63;1.98;;;9.60;99.90;;;;;;5080733;28;20021;-70
2023/11/15 01:11:42;;;;;;;5.53;2.20;;;;;;;;;;5080930;28;20028;-70
2023/11/15 01:14:08;;;;;;;4.47;2.55;;;9.80;99.90;;;;;;5080735;28;20058;-70
2023/11/15 01:16:33;;;;;;;2.45;2.13;;;9.80;99.90;;;;;;5080810;28;20021;-70
2023/11/15 01:18:59;;;;;;;4.13;2.13;;;;;;;;;;5080459;28;20258;-70
2023/11/15 01:21:25;;;;;;;5.70;2.67;;;9.70;99.90;;;;;;5080423;28;20324;-70
2023/11/15 01:23:51;;;;;;;2.95;2.53;;;;;;;;;;5080569;28;20025;-72
2023/11/15 01:26:18;;;;;;;9.38;3.10;;;9.70;99.90;;;;;;5080101;28;20328;-72
2023/11/15 01:28:44;;;;;;;5.32;2.28;;;9.60;99.90;;;;;;5080523;28;20315;-70
2023/11/15 01:31:09;;;;;;;6.30;2.47;;;9.60;99.90;;;;;;5080478;28;20067;-70
2023/11/15 01:33:35;;;;;;;6.03;2.92;;;;;;;;;;5080357;28;20021;-70
2023/11/15 01:36:01;;;;;;;8.10;2.90;;;;;;;;;;5080429;28;20024;-71
2023/11/15 01:38:29;;;;;;;5.40;3.33;;;9.40;99.90;;;;;;5080302;28;20027;-71
2023/11/15 01:40:55;;;;;;;3.78;2.92;;;9.40;99.90;;;;;;5079039;28;20078;-71
2023/11/15 01:43:21;;;;;;;5.70;3.30;;;9.50;99.90;;;;;;5080338;28;20309;-70
2023/11/15 01:45:47;;;;;;;4.25;2.53;;;9.50;99.90;;;;;;5079826;28;20051;-71
2023/11/15 01:48:16;;;;;;;7.32;2.97;;;9.40;99.90;;;;;;5084130;28;20028;-70
2023/11/15 01:50:43;;;;;;;7.43;2.78;;;9.40;99.90;;;;;;5084167;28;20275;-70
2023/11/15 01:53:09;;;;;;;5.57;3.05;;;9.50;99.90;;;;;;5084217;28;20024;-73
2023/11/15 01:55:35;;;;;;;4.40;2.90;;;9.50;99.90;;;;;;5082819;28;20324;-74
2023/11/15 01:58:01;;;;;;;4.03;3.08;;;9.20;99.90;;;;;;5084273;28;20020;-73
2023/11/15 02:00:27;;;;;;;6.63;3.33;;;9.10;99.90;;;;;;5084278;28;20194;-70
2023/11/15 02:02:54;;;;;;;4.88;3.53;;;9.20;99.90;;;;;;5084194;28;20185;-69
2023/11/15 02:05:20;;;;;;;4.97;3.60;;;9.50;99.90;;;;;;5083978;28;20038;-72
2023/11/15 02:07:46;;;;;;;6.13;3.63;;;9.30;99.90;;;;;;5083777;28;20040;-71
2023/11/15 02:10:13;;;;;;;6.88;3.83;;;;;;;;;;5083928;28;20335;-70
2023/11/15 02:12:39;;;;;;;7.00;4.15;;;9.50;99.90;;;;;;5082465;28;20016;-70
2023/11/15 02:15:05;;;;;;;9.02;4.18;;;9.80;99.90;;;;;;5083997;28;20100;-73
2023/11/15 02:17:32;;;;;;;8.98;3.80;;;9.00;99.90;;;;;;5082575;28;20047;-70
2023/11/15 02:19:58;;;;;;;9.10;4.22;;;;;;;;;;5083613;28;20013;-70
2023/11/15 02:22:27;;;;;;;6.63;4.15;;;9.30;99.90;;;;;;5083561;28;20127;-71
2023/11/15 02:24:53;;;;;;;;;;;9.30;99.90;;;;;;5085939;28;20099;-70
2023/11/15 02:27:19;;;;;;;5.40;3.10;;;9.30;99.90;;;;;;5087653;28;19916;-70
2023/11/15 02:29:45;;;;;;;6.72;3.47;;;9.20;99.90;;;;;;5087757;28;20023;-71
2023/11/15 02:32:11;;;;;;;5.28;3.50;;;9.20;99.90;;;;;;5087596;28;20032;-71
2023/11/15 02:34:36;;;;;;;5.18;3.25;;;9.30;99.90;;;;;;5087665;28;20020;-71
2023/11/15 02:37:02;;;;;;;10.63;3.90;;;;;;;;;;5085581;28;20110;-71
2023/11/15 02:39:28;;;;;;;4.85;3.97;;;;;;;;;;5083444;28;20044;-70
2023/11/15 02:41:54;;;;;;;7.78;3.53;;;;;;;;;;5083223;28;20056;-70
2023/11/15 02:44:21;;;;;;;10.10;4.43;;;9.70;99.90;;;;;;5083213;28;20208;-70
2023/11/15 02:46:47;;;;;;;4.53;3.33;;;;;;;;;;5083014;28;20032;-71
2023/11/15 02:49:13;;;;;;;4.88;3.30;;;;;;;;;;5083741;28;20035;-71
2023/11/15 02:51:39;;;;;;;5.88;3.50;;;9.50;99.90;;;;;;5083477;28;20022;-70
2023/11/15 02:54:05;;;;;;;8.18;2.45;;;9.30;99.90;;;;;;5083515;28;20042;-72
2023/11/15 02:56:31;;;;;;;6.78;2.78;;;9.40;99.90;;;;;;5083283;28;20083;-70
2023/11/15 02:58:56;;;;;;;3.95;2.90;;;9.50;99.90;;;;;;5082243;28;20357;-70
2023/11/15 03:01:22;;;;;;;10.65;2.88;;;9.60;99.90;;;;;;5082950;28;20024;-71
2023/11/15 03:03:48;;;;;;;7.65;2.83;;;;;;;;;;5083392;28;20059;-69
2023/11/15 03:06:14;;;;;;;6.82;3.03;;;;;;;;;;5083113;28;20050;-70
2023/11/15 03:08:40;;;;;;;5.13;2.90;;;9.20;99.90;;;;;;5082817;28;20495;-69
2023/11/15 03:11:06;;;;;;;5.28;3.03;;;9.60;99.90;;;;;;5083161;28;20056;-68
2023/11/15 03:13:32;;;;;;;7.45;3.85;;;9.40;99.90;;;;;;5082883;28;20095;-73
2023/11/15 03:15:58;;;;;;;12.43;2.92;;;;;;;;;;5082927;28;20047;-69
2023/11/15 03:18:25;;;;;;;5.85;2.90;;;;;;;;;;5082704;28;20390;-71
2023/11/15 03:20:50;;;;;;;3.70;2.90;;;9.10;99.90;;;;;;5082719;28;20024;-70
2023/11/15 03:23:16;;;;;;;4.00;2.92;;;9.20;99.90;;;;;;5082831;28;20138;-70
2023/11/15 03:25:42;;;;;;;5.25;2.40;;;9.20;99.90;;;;;;5082462;28;20336;-70
2023/11/15 03:28:08;;;;;;;5.05;2.58;;;9.10;99.90;;;;;;5082550;28;20288;-69
2023/11/15 03:30:34;;;;;;;8.90;2.20;;;;;;;;;;5082559;28;20224;-70
2023/11/15 03:33:00;;;;;;;3.58;2.22;;;9.00;99.90;;;;;;5082356;28;20024;-70
2023/11/15 03:35:26;;;;;;;4.85;2.10;;;8.80;99.90;;;;;;5082416;28;20016;-70
2023/11/15 03:37:52;;;;;;;3.80;2.05;;;8.70;99.90;;;;;;5082394;28;20025;-70
2023/11/15 03:40:19;;;;;;;4.40;2.53;;;8.80;99.90;;;;;;5082365;28;20043;-71
2023/11/15 03:42:46;;;;;;;3.15;2.38;;;8.70;99.90;;;;;;5082285;28;20098;-70
2023/11/15 03:45:12;;;;;;;4.97;2.20;;;;;;;;;;5082380;28;20020;-71
2023/11/15 03:47:39;;;;;;;2.60;1.90;;;8.70;99.90;;;;;;5082192;28;20024;-70
2023/11/15 03:50:05;;;;;;;3.53;2.30;;;8.60;99.90;;;;;;5082260;28;20047;-72
2023/11/15 03:52:32;;;;;;;4.78;2.33;;;;;;;;;;5082163;28;20382;-71
2023/11/15 03:54:58;;;;;;;3.13;2.17;;;8.70;99.90;;;;;;5082363;28;20027;-71
2023/11/15 03:57:24;;;;;;;2.65;1.67;;;8.60;99.90;;;;;;5082177;28;20079;-71
2023/11/15 03:59:52;;;;;;;7.35;2.40;;;8.60;99.90;;;;;;5082104;28;20327;-73
2023/11/15 04:02:18;;;;;;;2.30;1.92;;;;;;;;;;5080486;28;20308;-70
2023/11/15 04:04:44;;;;;;;6.45;2.13;;;8.60;99.90;;;;;;5081547;28;20055;-70
2023/11/15 04:07:10;;;;;;;3.28;2.10;;;;;;;;;;5081462;28;20043;-71
2023/11/15 04:09:36;;;;;;;3.30;1.92;;;8.50;99.90;;;;;;5081418;28;20028;-70
2023/11/15 04:12:02;;;;;;;3.28;2.05;;;8.40;99.90;;;;;;5081610;28;20055;-71
2023/11/15 04:14:28;;;;;;;4.07;1.60;;;;;;;;;;5081518;28;20054;-70
2023/11/15 04:16:54;;;;;;;2.67;2.08;;;8.40;99.90;;;;;;5081620;28;20024;-70
2023/11/15 04:19:21;;;;;;;2.67;1.63;;;8.30;99.90;;;;;;5081472;28;20020;-70
2023/11/15 04:21:51;;;;;;;3.15;2.17;;;8.40;99.90;;;;;;5081229;28;20383;-71
2023/11/15 04:24:17;;;;;;;4.95;2.05;;;8.40;99.90;;;;;;5081177;28;20060;-71
2023/11/15 04:26:45;;;;;;;4.53;1.60;;;8.40;99.90;;;;;;5081342;28;20036;-70
2023/11/15 04:29:12;;;;;;;4.68;1.48;;;8.40;99.90;;;;;;5081147;28;20028;-71
2023/11/15 04:31:38;;;;;;;3.67;1.33;;;8.20;99.90;;;;;;5081019;28;20016;-70
2023/11/15 04:34:05;;;;;;;8.52;2.40;;;8.30;99.90;;;;;;5081144;28;20038;-71
2023/11/15 04:36:34;;;;;;;1.33;1.00;;;8.40;99.90;;;;;;5081014;28;20047;-70
2023/11/15 04:39:00;;;;;;;4.78;1.15;;;;;;;;;;5080885;28;20035;-70
2023/11/15 04:41:27;;;;;;;2.63;0.90;;;8.30;99.90;;;;;;5080953;28;20083;-71
2023/11/15 04:43:53;;;;;;;1.17;1.08;;;8.30;99.90;;;;;;5080887;28;20035;-70
2023/11/15 04:46:19;;;;;;;5.22;0.88;;;8.50;99.90;;;;;;5081179;28;20025;-71
2023/11/15 04:48:44;;;;;;;1.75;0.88;;;;;;;;;;5080994;28;20099;-72
2023/11/15 04:51:10;;;;;;;4.22;1.15;;;8.50;99.90;;;;;;5080826;28;20116;-73
2023/11/15 04:53:37;;;;;;;3.33;1.17;;;;;;;;;;5080769;28;20095;-71
2023/11/15 04:56:03;;;;;;;4.07;1.10;;;8.30;99.90;;;;;;5080589;28;20365;-70
2023/11/15 04:58:28;;;;;;;1.17;0.93;;;8.30;99.90;;;;;;5080931;28;20047;-71
2023/11/15 05:00:55;;;;;;;1.25;0.98;;;;;;;;;;5080707;28;20319;-70
2023/11/15 05:03:20;;;;;;;2.15;1.00;;;8.40;99.90;;;;;;5080698;28;20080;-69
2023/11/15 05:05:47;;;;;;;2.05;1.08;;;;;;;;;;5080542;28;20021;-69
2023/11/15 05:08:13;;;;;;;2.08;0.80;;;;;;;;;;5080486;28;20028;-71
2023/11/15 05:10:38;;;;;;;2.78;0.82;;;8.30;99.90;;;;;;5080503;28;20017;-71
2023/11/15 05:13:04;;;;;;;1.58;1.40;;;;;;;;;;5081228;28;20039;-71
2023/11/15 05:15:33;;;;;;;2.83;1.08;;;8.60;99.90;;;;;;5080335;28;20336;-71
2023/11/15 05:17:59;;;;;;;;;;;8.50;99.90;;;;;;5081351;28;20058;-70
2023/11/15 05:20:26;;;;;;;2.55;0.85;;;8.70;99.90;;;;;;5080230;28;20203;-71
2023/11/15 05:22:52;;;;;;;1.08;0.98;;;8.50;99.90;;;;;;5080617;28;20028;-71
2023/11/15 05:25:18;;;;;;;4.18;0.88;;;8.50;99.90;;;;;;5080336;28;20094;-70
2023/11/15 05:27:45;;;;;;;1.33;0.90;;;;;;;;;;5080461;28;20103;-72
2023/11/15 05:30:11;;;;;;;1.30;0.98;;;8.40;99.90;;;;;;5080322;28;20092;-71
2023/11/15 05:32:37;;;;;;;2.03;0.90;;;8.60;99.90;;;;;;5079913;28;20028;-72
2023/11/15 05:35:04;;;;;;;2.70;0.90;;;8.70;99.90;;;;;;5079623;28;20016;-71
2023/11/15 05:37:30;;;;;;;3.15;1.98;;;8.60;99.90;;;;;;5079858;28;20039;-71
2023/11/15 05:39:56;;;;;;;3.03;0.70;;;;;;;;;;5080039;28;20048;-72
2023/11/15 05:42:22;;;;;;;0.85;0.77;;;;;;;;;;5080274;28;20055;-71
2023/11/15 05:44:48;;;;;;;2.63;0.82;;;8.70;99.90;;;;;;5080492;28;20088;-71
2023/11/15 05:47:15;;;;;;;0.90;0.73;;;8.60;99.90;;;;;;5080335;28;20067;-72
2023/11/15 05:49:41;;;;;;;1.85;0.80;;;8.60;99.90;;;;;;5080202;28;20021;-71
2023/11/15 05:52:07;;;;;;;3.05;0.98;;;8.80;99.90;;;;;;5080418;28;20059;-72
2023/11/15 05:54:33;;;;;;;2.08;0.77;;;;;;;;;;5080373;28;20316;-72
2023/11/15 05:56:59;;;;;;;0.77;0.68;;;8.80;99.90;;;;;;5078876;28;20023;-72
2023/11/15 05:59:26;;;;;;;1.20;0.60;;;8.90;99.90;;;;;;5080092;28;20029;-71
2023/11/15 06:01:54;;;;;;;0.85;0.52;;;8.90;99.90;;;;;;5080377;28;20021;-72
2023/11/15 06:04:20;;;;;;;0.98;0.68;;;9.00;99.90;;;;;;5080184;28;20017;-71
2023/11/15 06:06:46;;;;;;;1.38;0.75;;;9.10;99.90;;;;;;5080676;28;20078;-71
2023/11/15 06:09:14;;;;;;;1.98;1.05;;;9.10;99.90;;;;;;5080806;28;20028;-71
2023/11/15 06:11:42;;;;;;;0.65;0.47;;;9.00;99.90;;;;;;5079517;28;20029;-71
2023/11/15 06:14:08;;;;;;;1.52;0.70;;;9.50;99.90;;;;;;5081936;28;20024;-71
2023/11/15 06:16:37;;;;;;;1.23;0.40;;;9.40;99.90;;;;;;5081861;28;20051;-71
2023/11/15 06:19:06;;;;;;;0.57;0.57;;;9.60;99.90;;;;;;5080903;28;20029;-71
2023/11/15 06:21:33;;;;;;;;;;;9.70;99.90;;;;;;5080831;28;20309;-70
2023/11/15 06:23:59;;;;;;;13.55;2.78;;;10.00;99.90;;;;;;5080012;28;19904;-71
2023/11/15 06:26:25;;;;;;;0.47;0.40;;;;;;;;;;5079993;28;20074;-71
2023/11/15 06:28:51;;;;;;;2.72;1.58;;;10.20;99.90;;;;;;5079900;28;20020;-71
2023/11/15 06:31:20;;;;;;;0.57;0.50;;;10.30;99.90;;;;;;5080196;28;20016;-71
2023/11/15 06:33:46;;;;;;;1.35;0.50;;;10.40;99.90;;;;;;5082095;28;20020;-71
2023/11/15 06:36:12;;;;;;;0.40;0.40;;;10.10;99.90;;;;;;5083641;28;20044;-71
2023/11/15 06:38:37;;;;;;;0.77;0.32;;;10.50;99.90;;;;;;5083565;28;20012;-71
2023/11/15 06:41:07;;;;;;;0.55;0.40;;;;;;;;;;5083359;28;20032;-71
2023/11/15 06:43:33;;;;;;;1.13;0.68;;;;;;;;;;5083163;28;20031;-72
2023/11/15 06:45:59;;;;;;;2.28;0.55;;;10.70;99.90;;;;;;5083323;28;20086;-72
2023/11/15 06:48:25;;;;;;;0.80;0.65;;;;;;;;;;5083196;28;20236;-71
2023/11/15 06:50:51;;;;;;;0.77;0.50;;;11.10;99.90;;;;;;5083211;28;20350;-71
2023/11/15 06:53:17;;;;;;;2.42;0.68;;;10.80;99.90;;;;;;5083054;28;20020;-72
2023/11/15 06:55:42;;;;;;;0.85;0.60;;;11.10;99.90;;;;;;5082860;28;20044;-71
2023/11/15 06:58:11;;;;;;;0.75;0.43;;;11.00;99.90;;;;;;5083341;28;20066;-70
2023/11/15 07:00:37;;;;;;;0.65;0.40;;;11.10;99.90;;;;;;5083016;28;20012;-74
2023/11/15 07:03:03;;;;;;;1.67;0.57;;;11.30;99.90;;;;;;5083232;28;20096;-74
2023/11/15 07:05:31;;;;;;;1.48;0.93;;;;;;;;;;5082994;28;20091;-71
2023/11/15 07:07:57;;;;;;;0.57;0.40;;;;;;;;;;5082825;28;20032;-71
2023/11/15 07:10:22;;;;;;;1.33;0.43;;;11.30;99.90;;;;;;5081579;28;20320;-72
2023/11/15 07:12:49;;;;;;;2.13;0.30;;;11.60;98.90;;;;;;5080532;28;20031;-72
2023/11/15 07:15:18;;;;;;;0.30;0.30;;;11.80;97.70;;;;;;5083053;28;20091;-71
2023/11/15 07:17:45;;;;;;;1.77;0.68;;;;;;;;;;5069376;28;20198;-72
2023/11/15 07:20:11;;;;;;;0.35;0.35;;;12.10;94.60;;;;;;5062947;28;20021;-70
2023/11/15 07:22:37;;;;;;;5.78;0.50;;;12.40;96.50;;;;;;5062741;28;20083;-70
2023/11/15 07:25:04;;;;;;;5.00;0.52;;;;;;;;;;5062346;28;20119;-70
2023/11/15 07:27:31;;;;;;;0.30;0.30;;;;;;;;;;5073127;28;20074;-71
2023/11/15 07:29:58;;;;;;;0.45;0.40;;;12.40;94.70;;;;;;5082610;28;20020;-70
2023/11/15 07:32:23;;;;;;;1.60;0.65;;;12.40;90.10;;;;;;5082586;28;20039;-70
2023/11/15 07:34:49;;;;;;;0.45;0.40;;;;;;;;;;5081343;28;20546;-69
2023/11/15 07:37:15;;;;;;;1.25;0.70;;;12.20;94.00;;;;;;5081490;28;20025;-69
2023/11/15 07:39:41;;;;;;;1.23;0.80;;;;;;;;;;5081306;28;20065;-69
2023/11/15 07:42:07;;;;;;;0.98;0.50;;;;;;;;;;5080741;28;20126;-69
2023/11/15 07:44:33;;;;;;;1.02;0.65;;;12.20;95.50;;;;;;5061317;28;20013;-70
2023/11/15 07:46:58;;;;;;;2.25;0.60;;;12.10;95.60;;;;;;5061281;28;20099;-71
2023/11/15 07:49:26;;;;;;;0.70;0.40;;;12.00;89.10;;;;;;5060405;28;20219;-70
2023/11/15 07:51:52;;;;;;;3.15;0.70;;;11.90;95.30;;;;;;5062368;28;20090;-73
2023/11/15 07:54:19;;;;;;;2.08;1.35;;;12.20;90.80;;;;;;5060764;28;20236;-72
2023/11/15 07:56:45;;;;;;;2.17;0.40;;;;;;;;;;5071482;28;20028;-75
2023/11/15 07:59:11;;;;;;;1.15;0.68;;;12.20;90.20;;;;;;5064093;28;20036;-74
2023/11/15 08:01:37;;;;;;;0.45;0.30;;;12.00;94.40;;;;;;5062495;28;20017;-74
2023/11/15 08:04:06;;;;;;;0.30;0.20;;;12.00;94.70;;;;;;5062117;28;20012;-74
2023/11/15 08:06:33;;;;;;;0.57;0.23;;;12.10;94.90;;;;;;5062056;28;20005;-76
2023/11/15 08:09:00;;;;;;;1.15;0.40;;;11.90;94.80;;;;;;5062154;28;20434;-74
2023/11/15 08:11:26;;;;;;;0.52;0.20;;;;;;;;;;5062106;28;20029;-74
2023/11/15 08:13:53;;;;;;;2.15;0.63;;;12.10;94.80;;;;;;5061694;28;20328;-74
2023/11/15 08:16:22;;;;;;;0.68;0.38;;;11.80;94.90;;;;;;5061866;28;20021;-74
2023/11/15 08:18:49;;;;;;;0.50;0.25;;;11.90;94.90;;;;;;5061741;28;20317;-74
2023/11/15 08:21:15;;;;;;;0.50;0.20;;;;;;;;;;5060353;28;20032;-74
2023/11/15 08:23:42;;;;;;;0.75;0.75;;;;;;;;;;5061714;28;20059;-79
2023/11/15 08:26:07;;;;;;;1.42;0.40;;;11.80;94.80;;;;;;5061668;28;20060;-74
2023/11/15 08:28:33;;;;;;;1.17;0.30;;;11.70;88.10;;;;;;5061350;28;20312;-73
2023/11/15 08:30:59;;;;;;;0.38;0.32;;;12.00;95.00;;;;;;5061619;28;20021;-75
2023/11/15 08:33:26;;;;;;;0.25;0.20;;;12.10;94.80;;;;;;5061238;28;20248;-74
2023/11/15 08:35:53;;;;;;;0.47;0.30;;;11.90;94.60;;;;;;5061420;28;20064;-73
2023/11/15 08:38:24;;;;;;;0.95;0.40;;;12.10;87.20;;;;;;5061079;28;20029;-71
2023/11/15 08:40:55;;;;;;;1.55;0.30;;;12.00;94.20;;;;;;5061331;28;20033;-70
2023/11/15 08:43:22;;;;;;;0.75;0.40;;;;;;;;;;5059919;28;20092;-72
2023/11/15 08:45:48;;;;;;;0.47;0.35;;;;;;;;;;5060957;28;20025;-73
2023/11/15 08:48:17;;;;;;;1.50;0.35;;;12.30;86.90;;;;;;5061290;28;20035;-74
2023/11/15 08:50:43;;;;;;;;;;;12.30;87.30;;;;;;5061652;28;20027;-73
2023/11/15 08:53:14;;;;;;;2.88;0.45;;;12.50;86.10;;;;;;5060858;28;19915;-71
2023/11/15 08:55:48;;;;;;;0.20;0.20;;;12.30;94.30;;;;;;5067909;28;20020;-72
2023/11/15 08:58:14;;;;;;;2.10;0.20;;;;;;;;;;5078606;28;20028;-73
2023/11/15 09:00:41;;;;;;;1.08;0.20;;;12.80;93.80;;;;;;5080920;28;20091;-72
2023/11/15 09:03:08;;;;;;;0.57;0.28;;;12.40;93.70;;;;;;5079671;28;20046;-73
2023/11/15 09:05:36;;;;;;;0.13;0.10;;;12.50;93.70;;;;;;5080888;28;20044;-73
2023/11/15 09:08:03;;;;;;;0.10;0.10;;;12.30;86.70;;;;;;5081039;28;20040;-72
2023/11/15 09:10:29;;;;;;;0.10;0.10;;;12.20;93.60;;;;;;5077955;28;20029;-73
2023/11/15 09:12:56;;;;;;;1.33;0.28;;;;;;;;;;5080844;28;20220;-73
2023/11/15 09:15:24;;;;;;;0.32;0.25;;;12.30;85.90;;;;;;5081087;28;20087;-73
2023/11/15 09:17:50;;;;;;;0.20;0.17;;;12.30;88.90;;;;;;5080792;28;20051;-73
2023/11/15 09:20:25;;;;;;;0.55;0.22;;;12.30;90.10;;;;;;5081157;28;20237;-75
2023/11/15 09:22:53;;;;;;;2.15;1.02;;;12.30;94.00;;;;;;5080979;28;20020;-75
2023/11/15 09:25:26;;;;;;;0.10;0.10;;;12.50;94.10;;;;;;5079806;28;20052;-73
2023/11/15 09:27:55;;;;;;;0.10;0.10;;;12.30;93.60;;;;;;5081010;28;20099;-74
2023/11/15 09:30:21;;;;;;;0.10;0.10;;;12.30;93.40;;;;;;5081089;28;20043;-74
2023/11/15 09:32:51;;;;;;;0.38;0.13;;;12.30;93.40;;;;;;5080710;28;20032;-74
2023/11/15 09:35:18;;;;;;;0.35;0.35;;;12.20;93.90;;;;;;5080772;28;20020;-73
2023/11/15 09:37:44;;;;;;;1.13;0.20;;;12.50;93.50;;;;;;5080937;28;20017;-75
2023/11/15 09:40:11;;;;;;;1.38;0.63;;;12.70;85.60;;;;;;5080990;28;20317;-74
2023/11/15 09:42:47;;;;;;;0.30;0.30;;;12.50;93.20;;;;;;5080668;28;20204;-75
2023/11/15 09:45:19;;;;;;;0.17;0.17;;;12.50;83.10;;;;;;5080896;28;20020;-76
2023/11/15 09:47:56;;;;;;;2.38;0.52;;;12.60;83.20;;;;;;5080960;28;20094;-75
2023/11/15 09:50:26;;;;;;;0.20;0.20;;;12.60;92.70;;;;;;5080884;28;20017;-75
2023/11/15 09:52:55;;;;;;;0.28;0.28;;;12.70;92.60;;;;;;5080852;28;20024;-74
2023/11/15 09:55:22;;;;;;;0.63;0.40;;;12.70;92.90;;;;;;5080710;28;20079;-73
2023/11/15 09:57:51;;;;;;;0.73;0.35;;;12.60;83.40;;;;;;5065844;28;20035;-74
2023/11/15 10:00:20;;;;;;;0.10;0.10;;;12.50;92.30;;;;;;5065504;28;20080;-73
2023/11/15 10:02:50;;;;;;;1.13;0.30;;;12.60;93.00;;;;;;5079859;28;20040;-74
2023/11/15 10:05:29;;;;;;;1.60;1.50;;;12.50;83.90;;;;;;5065594;28;20028;-74
2023/11/15 10:08:11;;;;;;;0.20;0.20;;;12.50;83.60;;;;;;5062900;28;20064;-76
2023/11/15 10:10:38;;;;;;;0.43;0.30;;;12.40;87.90;;;;;;5064177;28;20067;-74
2023/11/15 10:13:18;;;;;;;0.40;0.20;;;12.60;90.00;;;;;;5064289;28;20091;-74
2023/11/15 10:15:46;;;;;;;1.15;0.30;;;12.40;84.00;;;;;;5064284;28;20024;-73
2023/11/15 10:18:27;;;;;;;2.10;0.17;;;11.70;84.40;;;;;;5064094;28;20025;-75
2023/11/15 10:21:06;;;;;;;0.95;0.40;;;12.60;86.00;;;;;;5084378;28;20036;-72
2023/11/15 10:23:32;;;;;;;0.30;0.30;;;12.30;93.50;;;;;;5084254;28;20027;-75
2023/11/15 10:26:00;;;;;;;0.30;0.30;;;12.80;93.40;;;;;;5083822;28;20051;-76
2023/11/15 10:28:33;;;;;;;1.20;0.30;;;12.50;83.70;;;;;;5084209;28;20036;-75
2023/11/15 10:31:05;;;;;;;1.20;0.30;;;12.70;93.20;;;;;;5084063;28;20190;-72
2023/11/15 10:33:32;;;;;;;0.20;0.20;;;12.40;93.10;;;;;;5083967;28;20043;-72
2023/11/15 10:36:16;;;;;;;0.70;0.52;;;12.60;93.20;;;;;;5083408;28;20017;-72
2023/11/15 10:38:48;;;;;;;1.30;0.40;;;12.60;93.10;;;;;;5083437;28;20024;-75
2023/11/15 10:41:19;;;;;;;0.45;0.30;;;12.60;92.70;;;;;;5082386;28;20021;-73
2023/11/15 10:43:49;;;;;;;0.22;0.22;;;12.70;83.50;;;;;;5083550;28;20042;-72
2023/11/15 10:46:17;;;;;;;3.63;0.20;;;12.70;92.10;;;;;;5083911;28;20054;-73
2023/11/15 10:48:45;;;;;;;3.22;0.40;;;12.60;92.50;;;;;;5083858;28;20103;-73
2023/11/15 10:51:22;;;;;;;0.20;0.20;;;13.00;92.50;;;;;;5083874;28;20039;-73
2023/11/15 10:53:48;;;;;;;0.20;0.20;;;12.80;92.40;;;;;;5083692;28;20086;-72
2023/11/15 10:56:15;;;;;;;5.47;0.95;;;12.80;92.30;;;;;;5083397;28;20012;-74
2023/11/15 10:58:46;;;;;;;0.13;0.13;;;13.00;84.80;;;;;;5083611;28;20025;-71
2023/11/15 11:01:16;;;;;;;0.20;0.20;;;13.10;92.20;;;;;;5083668;28;20023;-71
2023/11/15 11:03:51;;;;;;;0.38;0.38;;;12.80;91.90;;;;;;5083373;28;20043;-72
2023/11/15 11:06:27;;;;;;;1.15;0.28;;;12.90;86.50;;;;;;5083246;28;20058;-72
2023/11/15 11:09:21;;;;;;;0.22;0.22;;;12.80;91.80;;;;;;5082913;28;20342;-72
2023/11/15 11:12:00;;;;;;;1.23;0.20;;;12.90;81.80;;;;;;5082718;28;20312;-73
2023/11/15 11:14:27;;;;;;;1.08;0.10;;;;;;;;;;5082999;28;20028;-73
2023/11/15 11:16:56;;;;;;;0.80;0.25;;;13.50;90.30;;;;;;5082622;28;20080;-73
2023/11/15 11:19:24;;;;;;;0.43;0.28;;;13.30;90.10;;;;;;5081922;28;20024;-73
2023/11/15 11:22:06;;;;;;;0.25;0.10;;;13.30;77.70;;;;;;5082631;28;20170;-72
2023/11/15 11:24:32;;;;;;;0.30;0.20;;;;;;;;;;5082657;28;20075;-73
2023/11/15 11:27:16;;;;;;;0.52;0.32;;;13.10;87.60;;;;;;5082396;28;20224;-73
2023/11/15 11:30:01;;;;;;;0.85;0.30;;;13.10;90.00;;;;;;5082622;28;20021;-74
2023/11/15 11:32:31;;;;;;;0.32;0.20;;;13.10;77.10;;;;;;5078700;28;20099;-72
2023/11/15 11:37:55;;;;;;;2.30;0.17;;;;;;;;;;5073331;28;20085;-72
2023/11/15 11:40:23;;;;;;;0.32;0.28;;;13.30;89.90;;;;;;5082488;28;20025;-74
2023/11/15 11:42:52;;;;;;;1.27;0.38;;;13.20;90.20;;;;;;5082175;28;20036;-73
2023/11/15 11:45:28;;;;;;;0.22;0.22;;;13.10;80.10;;;;;;5082051;28;20087;-73
2023/11/15 11:47:53;;;;;;;0.30;0.30;;;13.50;87.40;;;;;;5081993;28;20036;-72
2023/11/15 11:50:19;;;;;;;0.10;0.10;;;;;;;;;;5082268;28;20101;-72
2023/11/15 11:52:45;;;;;;;2.17;0.40;;;13.80;84.20;;;;;;5081964;28;20127;-74
2023/11/15 11:55:11;;;;;;;0.40;0.40;;;;;;;;;;5080809;28;20091;-72
2023/11/15 11:57:38;;;;;;;1.52;0.63;;;;;;;;;;5081866;28;20027;-73
2023/11/15 12:00:18;;;;;;;1.20;0.30;;;13.80;84.50;;;;;;5082078;28;20028;-73
2023/11/15 12:02:49;;;;;;;0.20;0.20;;;14.00;71.60;;;;;;5082040;28;20028;-74
2023/11/15 12:05:24;;;;;;;1.35;0.32;;;13.80;83.10;;;;;;5082026;28;20062;-74
2023/11/15 12:07:54;;;;;;;3.22;0.52;;;14.10;71.60;;;;;;5074975;28;20104;-73
2023/11/15 12:10:20;;;;;;;2.35;0.43;;;13.80;78.60;;;;;;5068529;28;20040;-74
2023/11/15 12:13:05;;;;;;;0.40;0.30;;;14.30;71.40;;;;;;5061835;28;20017;-73
2023/11/15 12:15:35;;;;;;;0.57;0.38;;;14.10;81.70;;;;;;5061761;28;20096;-73
2023/11/15 12:18:02;;;;;;;2.78;0.43;;;;;;;;;;5061825;28;20013;-73
2023/11/15 12:20:38;;;;;;;0.30;0.30;;;14.60;69.20;;;;;;5061604;28;20084;-73
2023/11/15 12:23:09;;;;;;;1.30;0.50;;;14.30;80.20;;;;;;5072953;28;20017;-72
2023/11/15 12:25:52;;;;;;;1.33;0.35;;;14.40;69.80;;;;;;5061273;28;20124;-72
2023/11/15 12:28:30;;;;;;;0.50;0.50;;;14.10;81.50;;;;;;5061384;28;20037;-73
2023/11/15 12:30:57;;;;;;;3.53;0.73;;;13.80;82.30;;;;;;5061757;28;20028;-71
2023/11/15 12:33:25;;;;;;;0.63;0.40;;;14.00;83.40;;;;;;5074004;28;20055;-72
2023/11/15 12:35:53;;;;;;;0.40;0.40;;;13.50;75.40;;;;;;5081082;28;20262;-73
2023/11/15 12:38:19;;;;;;;0.70;0.50;;;13.60;85.20;;;;;;5081121;28;20063;-72
2023/11/15 12:40:47;;;;;;;0.93;0.40;;;13.30;81.30;;;;;;5081277;28;20020;-72
2023/11/15 12:43:21;;;;;;;1.10;0.45;;;13.10;73.50;;;;;;5081268;28;20111;-72
2023/11/15 12:45:58;;;;;;;1.13;0.60;;;13.00;73.80;;;;;;5081181;28;20024;-72
2023/11/15 12:48:24;;;;;;;0.50;0.38;;;13.00;87.00;;;;;;5081231;28;20028;-72
2023/11/15 12:51:02;;;;;;;0.98;0.50;;;12.90;75.10;;;;;;5080883;28;20308;-72
2023/11/15 12:53:31;;;;;;;7.65;1.27;;;12.80;77.10;;;;;;5081202;28;20024;-72
2023/11/15 12:55:58;;;;;;;1.60;0.40;;;12.90;75.20;;;;;;5079454;28;20126;-73
2023/11/15 12:58:33;;;;;;;2.28;0.73;;;12.90;75.70;;;;;;5080818;28;20009;-72
2023/11/15 13:01:07;;;;;;;1.02;0.63;;;12.80;88.10;;;;;;5080499;28;20252;-72
2023/11/15 13:03:35;;;;;;;1.23;0.70;;;13.00;76.10;;;;;;5080902;28;20107;-72
2023/11/15 13:06:17;;;;;;;1.10;0.60;;;13.00;88.00;;;;;;5075476;28;20058;-72
2023/11/15 13:08:47;;;;;;;1.02;0.50;;;13.20;80.20;;;;;;5080595;28;20289;-74
2023/11/15 13:11:17;;;;;;;1.85;1.05;;;13.30;75.50;;;;;;5080705;28;20336;-71
2023/11/15 13:13:49;;;;;;;4.40;0.57;;;13.40;83.40;;;;;;5081063;28;20045;-74
2023/11/15 13:16:19;;;;;;;1.30;1.00;;;13.20;75.90;;;;;;5080801;28;20077;-73
2023/11/15 13:18:47;;;;;;;2.35;1.13;;;13.30;76.10;;;;;;5080918;28;20028;-73